sensor_id;sensor_type;location;lat;lon;timestamp;pressure;altitude;pressure_sealevel;temperature;humidity
49315;BME280;36672;50.710;12.498;2022-12-29T00:02:08;97849.22;;;8.03;64.08
49315;BME280;36672;50.710;12.498;2022-12-29T00:04:33;97810.84;;;7.88;64.79
49315;BME280;36672;50.710;12.498;2022-12-29T00:06:59;97830.97;;;7.98;64.84
49315;BME280;36672;50.710;12.498;2022-12-29T00:09:25;97814.56;;;7.87;64.74
49315;BME280;36672;50.710;12.498;2022-12-29T00:11:51;97835.34;;;8.06;64.61
49315;BME280;36672;50.710;12.498;2022-12-29T00:14:16;97829.38;;;8.11;64.67
49315;BME280;36672;50.710;12.498;2022-12-29T00:17:00;97834.75;;;8.11;66.18
49315;BME280;36672;50.710;12.498;2022-12-29T00:19:26;97841.81;;;8.19;64.63
49315;BME280;36672;50.710;12.498;2022-12-29T00:22:12;97841.63;;;8.27;64.65
49315;BME280;36672;50.710;12.498;2022-12-29T00:24:56;97823.81;;;8.26;64.88
49315;BME280;36672;50.710;12.498;2022-12-29T00:27:34;97841.25;;;8.43;63.86
49315;BME280;36672;50.710;12.498;2022-12-29T00:30:21;97827.78;;;8.43;63.57
49315;BME280;36672;50.710;12.498;2022-12-29T00:36:00;97812.16;;;8.60;63.17
49315;BME280;36672;50.710;12.498;2022-12-29T00:38:27;97830.19;;;8.73;62.94
49315;BME280;36672;50.710;12.498;2022-12-29T00:41:11;97833.50;;;8.75;63.17
49315;BME280;36672;50.710;12.498;2022-12-29T00:43:55;97844.69;;;8.72;62.46
49315;BME280;36672;50.710;12.498;2022-12-29T00:46:33;97827.06;;;8.70;62.87
49315;BME280;36672;50.710;12.498;2022-12-29T00:48:59;97835.59;;;8.87;62.86
49315;BME280;36672;50.710;12.498;2022-12-29T00:51:44;97845.31;;;8.88;63.19
49315;BME280;36672;50.710;12.498;2022-12-29T00:54:09;97847.78;;;8.82;63.07
49315;BME280;36672;50.710;12.498;2022-12-29T00:56:35;97843.69;;;8.87;63.21
49315;BME280;36672;50.710;12.498;2022-12-29T00:59:05;97851.94;;;8.85;62.56
49315;BME280;36672;50.710;12.498;2022-12-29T01:01:31;97843.84;;;8.85;62.56
49315;BME280;36672;50.710;12.498;2022-12-29T01:03:57;97821.88;;;8.75;62.50
49315;BME280;36672;50.710;12.498;2022-12-29T01:06:22;97845.94;;;8.83;62.77
49315;BME280;36672;50.710;12.498;2022-12-29T01:08:47;97836.59;;;8.65;62.71
49315;BME280;36672;50.710;12.498;2022-12-29T01:11:33;97839.72;;;8.76;62.21
49315;BME280;36672;50.710;12.498;2022-12-29T01:13:58;97848.66;;;8.83;61.94
49315;BME280;36672;50.710;12.498;2022-12-29T01:16:23;97840.56;;;8.83;62.30
49315;BME280;36672;50.710;12.498;2022-12-29T01:18:48;97823.34;;;8.77;61.65
49315;BME280;36672;50.710;12.498;2022-12-29T01:21:14;97850.09;;;8.92;62.21
49315;BME280;36672;50.710;12.498;2022-12-29T01:23:39;97844.50;;;8.94;61.63
49315;BME280;36672;50.710;12.498;2022-12-29T01:26:12;97839.31;;;8.92;61.57
49315;BME280;36672;50.710;12.498;2022-12-29T01:28:38;97832.47;;;8.96;61.88
49315;BME280;36672;50.710;12.498;2022-12-29T01:31:05;97834.13;;;8.97;61.53
49315;BME280;36672;50.710;12.498;2022-12-29T01:33:31;97822.53;;;8.97;61.87
49315;BME280;36672;50.710;12.498;2022-12-29T01:36:03;97822.53;;;8.97;61.71
49315;BME280;36672;50.710;12.498;2022-12-29T01:38:29;97813.63;;;8.90;61.36
49315;BME280;36672;50.710;12.498;2022-12-29T01:40:54;97841.59;;;8.95;62.06
49315;BME280;36672;50.710;12.498;2022-12-29T01:43:20;97821.69;;;8.96;61.55
49315;BME280;36672;50.710;12.498;2022-12-29T01:45:50;97805.09;;;8.93;61.89
49315;BME280;36672;50.710;12.498;2022-12-29T01:48:17;97817.34;;;8.95;61.89
49315;BME280;36672;50.710;12.498;2022-12-29T01:50:51;97814.25;;;8.92;62.29
49315;BME280;36672;50.710;12.498;2022-12-29T01:53:18;97830.41;;;8.92;62.23
49315;BME280;36672;50.710;12.498;2022-12-29T01:55:48;97803.44;;;8.85;62.67
49315;BME280;36672;50.710;12.498;2022-12-29T01:58:18;97800.97;;;8.90;62.72
49315;BME280;36672;50.710;12.498;2022-12-29T02:00:45;97809.06;;;8.90;62.10
49315;BME280;36672;50.710;12.498;2022-12-29T02:03:11;97811.75;;;8.90;62.27
49315;BME280;36672;50.710;12.498;2022-12-29T02:08:22;97806.56;;;8.82;62.82
49315;BME280;36672;50.710;12.498;2022-12-29T02:10:50;97815.47;;;8.82;62.76
49315;BME280;36672;50.710;12.498;2022-12-29T02:13:16;97798.91;;;8.86;62.40
49315;BME280;36672;50.710;12.498;2022-12-29T02:27:00;97813.63;;;8.90;63.24
49315;BME280;36672;50.710;12.498;2022-12-29T02:29:54;97794.53;;;8.91;62.82
49315;BME280;36672;50.710;12.498;2022-12-29T02:32:50;97805.09;;;8.93;63.22
49315;BME280;36672;50.710;12.498;2022-12-29T02:48:24;97793.31;;;9.01;63.51
49315;BME280;36672;50.710;12.498;2022-12-29T02:51:16;97780.47;;;9.03;63.45
49315;BME280;36672;50.710;12.498;2022-12-29T02:53:44;97753.75;;;8.94;62.96
49315;BME280;36672;50.710;12.498;2022-12-29T02:56:28;97761.19;;;9.06;62.98
49315;BME280;36672;50.710;12.498;2022-12-29T02:58:53;97765.31;;;9.02;63.51
49315;BME280;36672;50.710;12.498;2022-12-29T03:01:37;97767.41;;;9.06;63.21
49315;BME280;36672;50.710;12.498;2022-12-29T03:04:41;97772.19;;;9.11;63.25
49315;BME280;36672;50.710;12.498;2022-12-29T03:07:20;97761.59;;;9.16;63.97
49315;BME280;36672;50.710;12.498;2022-12-29T03:12:34;97754.75;;;9.20;63.50
49315;BME280;36672;50.710;12.498;2022-12-29T03:15:39;97778.38;;;9.18;64.21
49315;BME280;36672;50.710;12.498;2022-12-29T03:18:47;97749.34;;;9.20;64.43
49315;BME280;36672;50.710;12.498;2022-12-29T03:21:19;97776.50;;;9.25;64.68
49315;BME280;36672;50.710;12.498;2022-12-29T03:24:08;97764.91;;;9.25;64.40
49315;BME280;36672;50.710;12.498;2022-12-29T03:26:35;97761.34;;;9.24;64.83
49315;BME280;36672;50.710;12.498;2022-12-29T03:29:01;97754.13;;;9.25;65.05
49315;BME280;36672;50.710;12.498;2022-12-29T03:31:27;97753.06;;;9.26;65.23
49315;BME280;36672;50.710;12.498;2022-12-29T03:33:54;97748.09;;;9.23;65.38
49315;BME280;36672;50.710;12.498;2022-12-29T03:36:27;97741.66;;;9.24;65.99
49315;BME280;36672;50.710;12.498;2022-12-29T03:39:08;97720.78;;;9.06;66.45
49315;BME280;36672;50.710;12.498;2022-12-29T03:41:37;97750.59;;;9.31;65.96
49315;BME280;36672;50.710;12.498;2022-12-29T03:44:08;97765.31;;;9.28;65.77
49315;BME280;36672;50.710;12.498;2022-12-29T03:46:33;97727.34;;;9.30;65.84
49315;BME280;36672;50.710;12.498;2022-12-29T03:48:59;97730.28;;;9.28;65.58
49315;BME280;36672;50.710;12.498;2022-12-29T03:51:24;97722.75;;;9.37;66.22
49315;BME280;36672;50.710;12.498;2022-12-29T03:53:50;97720.91;;;9.38;65.68
49315;BME280;36672;50.710;12.498;2022-12-29T03:56:15;97728.81;;;9.33;65.81
49315;BME280;36672;50.710;12.498;2022-12-29T03:58:40;97745.56;;;9.41;65.70
49315;BME280;36672;50.710;12.498;2022-12-29T04:01:06;97745.56;;;9.35;65.79
49315;BME280;36672;50.710;12.498;2022-12-29T04:03:31;97746.63;;;9.40;65.16
49315;BME280;36672;50.710;12.498;2022-12-29T04:05:56;97746.63;;;9.40;65.73
49315;BME280;36672;50.710;12.498;2022-12-29T04:08:22;97698.31;;;9.25;65.79
49315;BME280;36672;50.710;12.498;2022-12-29T04:10:50;97758.25;;;9.34;65.39
49315;BME280;36672;50.710;12.498;2022-12-29T04:13:15;97785.81;;;9.29;65.51
49315;BME280;36672;50.710;12.498;2022-12-29T04:15:43;97767.16;;;9.28;65.81
49315;BME280;36672;50.710;12.498;2022-12-29T04:18:08;97758.44;;;9.26;65.14
49315;BME280;36672;50.710;12.498;2022-12-29T04:20:33;97744.38;;;9.17;65.31
49315;BME280;36672;50.710;12.498;2022-12-29T04:23:17;97748.09;;;9.23;65.85
49315;BME280;36672;50.710;12.498;2022-12-29T04:25:45;97746.44;;;9.22;65.51
49315;BME280;36672;50.710;12.498;2022-12-29T04:28:12;97746.88;;;9.19;66.03
49315;BME280;36672;50.710;12.498;2022-12-29T04:30:37;97737.34;;;9.16;65.68
49315;BME280;36672;50.710;12.498;2022-12-29T04:33:03;97746.44;;;9.22;65.59
49315;BME280;36672;50.710;12.498;2022-12-29T04:35:28;97731.31;;;9.14;65.84
49315;BME280;36672;50.710;12.498;2022-12-29T04:37:53;97747.47;;;9.21;65.81
49315;BME280;36672;50.710;12.498;2022-12-29T04:40:19;97751.63;;;9.17;65.49
49315;BME280;36672;50.710;12.498;2022-12-29T04:42:44;97756.41;;;9.21;65.76
49315;BME280;36672;50.710;12.498;2022-12-29T04:45:10;97732.56;;;9.11;65.75
49315;BME280;36672;50.710;12.498;2022-12-29T04:47:35;97733.81;;;9.22;65.73
49315;BME280;36672;50.710;12.498;2022-12-29T04:50:01;97734.00;;;9.27;66.02
49315;BME280;36672;50.710;12.498;2022-12-29T04:52:26;97723.66;;;9.18;66.09
49315;BME280;36672;50.710;12.498;2022-12-29T04:54:51;97707.06;;;9.14;66.14
49315;BME280;36672;50.710;12.498;2022-12-29T04:57:17;97740.22;;;9.28;66.25
49315;BME280;36672;50.710;12.498;2022-12-29T04:59:42;97743.75;;;9.28;66.65
49315;BME280;36672;50.710;12.498;2022-12-29T05:02:07;97738.34;;;9.28;66.40
49315;BME280;36672;50.710;12.498;2022-12-29T05:04:33;97734.00;;;9.27;66.60
49315;BME280;36672;50.710;12.498;2022-12-29T05:06:58;97734.59;;;9.29;65.90
49315;BME280;36672;50.710;12.498;2022-12-29T05:09:23;97720.13;;;9.17;65.83
49315;BME280;36672;50.710;12.498;2022-12-29T05:11:49;97714.75;;;9.17;65.87
49315;BME280;36672;50.710;12.498;2022-12-29T05:14:14;97712.03;;;9.17;65.47
49315;BME280;36672;50.710;12.498;2022-12-29T05:16:40;97724.25;;;9.26;65.32
49315;BME280;36672;50.710;12.498;2022-12-29T05:19:05;97732.97;;;9.22;65.32
49315;BME280;36672;50.710;12.498;2022-12-29T05:21:30;97734.19;;;9.33;65.64
49315;BME280;36672;50.710;12.498;2022-12-29T05:23:56;97729.22;;;9.29;65.49
49315;BME280;36672;50.710;12.498;2022-12-29T05:26:21;97752.63;;;9.36;65.78
49315;BME280;36672;50.710;12.498;2022-12-29T05:28:46;97743.53;;;9.30;65.22
49315;BME280;36672;50.710;12.498;2022-12-29T05:31:12;97752.63;;;9.36;65.11
49315;BME280;36672;50.710;12.498;2022-12-29T05:33:37;97761.38;;;9.31;65.35
49315;BME280;36672;50.710;12.498;2022-12-29T05:36:06;97753.84;;;9.40;65.24
49315;BME280;36672;50.710;12.498;2022-12-29T05:38:32;97758.25;;;9.27;65.50
49315;BME280;36672;50.710;12.498;2022-12-29T05:40:58;97750.16;;;9.34;65.68
49315;BME280;36672;50.710;12.498;2022-12-29T05:43:23;97752.88;;;9.27;65.66
49315;BME280;36672;50.710;12.498;2022-12-29T05:45:49;97746.66;;;9.20;66.19
49315;BME280;36672;50.710;12.498;2022-12-29T05:48:15;97727.41;;;9.03;66.66
49315;BME280;36672;50.710;12.498;2022-12-29T05:50:40;97757.63;;;9.12;67.13
49315;BME280;36672;50.710;12.498;2022-12-29T05:53:05;97754.13;;;8.98;67.08
49315;BME280;36672;50.710;12.498;2022-12-29T05:55:30;97757.84;;;9.10;67.12
49315;BME280;36672;50.710;12.498;2022-12-29T05:57:56;97758.47;;;9.12;67.57
49315;BME280;36672;50.710;12.498;2022-12-29T06:00:22;97770.72;;;9.08;67.72
49315;BME280;36672;50.710;12.498;2022-12-29T06:02:47;97766.97;;;9.16;68.13
49315;BME280;36672;50.710;12.498;2022-12-29T06:05:12;97765.94;;;9.17;68.35
49315;BME280;36672;50.710;12.498;2022-12-29T06:07:37;97730.69;;;9.12;68.07
49315;BME280;36672;50.710;12.498;2022-12-29T06:10:04;97750.59;;;9.18;68.86
49315;BME280;36672;50.710;12.498;2022-12-29T06:12:30;97742.06;;;9.21;67.95
49315;BME280;36672;50.710;12.498;2022-12-29T06:14:55;97742.06;;;9.21;68.39
49315;BME280;36672;50.710;12.498;2022-12-29T06:17:21;97740.63;;;9.25;68.99
49315;BME280;36672;50.710;12.498;2022-12-29T06:19:46;97735.88;;;9.13;68.82
49315;BME280;36672;50.710;12.498;2022-12-29T06:22:11;97719.91;;;9.19;68.34
49315;BME280;36672;50.710;12.498;2022-12-29T06:24:37;97742.91;;;9.28;68.54
49315;BME280;36672;50.710;12.498;2022-12-29T06:27:03;97754.53;;;9.28;68.73
49315;BME280;36672;50.710;12.498;2022-12-29T06:29:28;97732.34;;;9.26;68.56
49315;BME280;36672;50.710;12.498;2022-12-29T06:31:54;97738.75;;;9.25;68.40
49315;BME280;36672;50.710;12.498;2022-12-29T06:34:23;97716.00;;;9.14;68.49
49315;BME280;36672;50.710;12.498;2022-12-29T06:36:48;97729.22;;;9.23;68.35
49315;BME280;36672;50.710;12.498;2022-12-29T06:39:14;97723.84;;;9.23;67.83
49315;BME280;36672;50.710;12.498;2022-12-29T06:41:39;97714.94;;;9.22;68.33
49315;BME280;36672;50.710;12.498;2022-12-29T06:44:04;97718.44;;;9.23;67.60
49315;BME280;36672;50.710;12.498;2022-12-29T06:46:30;97712.44;;;9.14;68.09
49315;BME280;36672;50.710;12.498;2022-12-29T06:48:55;97703.34;;;9.15;68.02
49315;BME280;36672;50.710;12.498;2022-12-29T06:51:20;97699.41;;;9.04;67.94
49315;BME280;36672;50.710;12.498;2022-12-29T06:53:46;97709.16;;;9.05;67.45
49315;BME280;36672;50.710;12.498;2022-12-29T06:56:11;97715.56;;;9.04;67.86
49315;BME280;36672;50.710;12.498;2022-12-29T06:58:36;97689.50;;;8.85;67.57
49315;BME280;36672;50.710;12.498;2022-12-29T07:01:02;97725.13;;;9.00;67.16
49315;BME280;36672;50.710;12.498;2022-12-29T07:03:27;97742.53;;;8.97;67.65
49315;BME280;36672;50.710;12.498;2022-12-29T07:05:52;97724.28;;;8.93;67.29
49315;BME280;36672;50.710;12.498;2022-12-29T07:08:19;97726.16;;;8.92;67.06
49315;BME280;36672;50.710;12.498;2022-12-29T07:10:45;97716.84;;;8.81;66.66
49315;BME280;36672;50.710;12.498;2022-12-29T07:13:11;97721.41;;;8.88;66.88
49315;BME280;36672;50.710;12.498;2022-12-29T07:15:37;97698.63;;;8.77;66.43
49315;BME280;36672;50.710;12.498;2022-12-29T07:18:03;97723.06;;;8.89;66.42
49315;BME280;36672;50.710;12.498;2022-12-29T07:20:29;97730.53;;;8.93;66.32
49315;BME280;36672;50.710;12.498;2022-12-29T07:22:55;97713.72;;;8.91;65.76
49315;BME280;36672;50.710;12.498;2022-12-29T07:25:20;97723.03;;;8.95;66.08
49315;BME280;36672;50.710;12.498;2022-12-29T07:27:46;97730.72;;;8.98;65.56
49315;BME280;36672;50.710;12.498;2022-12-29T07:30:12;97725.56;;;8.97;66.08
49315;BME280;36672;50.710;12.498;2022-12-29T07:32:37;97732.78;;;8.96;65.28
49315;BME280;36672;50.710;12.498;2022-12-29T07:35:03;97728.44;;;8.95;65.65
49315;BME280;36672;50.710;12.498;2022-12-29T07:37:28;97722.84;;;8.97;65.33
49315;BME280;36672;50.710;12.498;2022-12-29T07:39:54;97726.59;;;8.96;65.42
49315;BME280;36672;50.710;12.498;2022-12-29T07:42:19;97737.97;;;8.98;64.59
49315;BME280;36672;50.710;12.498;2022-12-29T07:44:44;97733.22;;;8.93;64.94
49315;BME280;36672;50.710;12.498;2022-12-29T07:47:10;97749.56;;;9.05;64.80
49315;BME280;36672;50.710;12.498;2022-12-29T07:49:35;97739.63;;;9.06;64.36
49315;BME280;36672;50.710;12.498;2022-12-29T07:52:00;97737.34;;;9.16;64.05
49315;BME280;36672;50.710;12.498;2022-12-29T07:54:26;97735.47;;;9.10;63.93
49315;BME280;36672;50.710;12.498;2022-12-29T07:56:51;97767.19;;;9.21;63.26
49315;BME280;36672;50.710;12.498;2022-12-29T07:59:17;97746.44;;;9.28;63.63
49315;BME280;36672;50.710;12.498;2022-12-29T08:01:42;97753.06;;;9.26;63.08
49315;BME280;36672;50.710;12.498;2022-12-29T08:04:07;97746.41;;;9.35;63.55
49315;BME280;36672;50.710;12.498;2022-12-29T08:06:33;97745.16;;;9.38;63.73
49315;BME280;36672;50.710;12.498;2022-12-29T08:08:58;97748.69;;;9.38;63.16
49315;BME280;36672;50.710;12.498;2022-12-29T08:11:25;97761.53;;;9.43;63.20
49315;BME280;36672;50.710;12.498;2022-12-29T08:13:51;97776.69;;;9.44;62.98
49315;BME280;36672;50.710;12.498;2022-12-29T08:16:16;97761.50;;;9.50;62.57
49315;BME280;36672;50.710;12.498;2022-12-29T08:18:42;97754.06;;;9.52;63.27
49315;BME280;36672;50.710;12.498;2022-12-29T08:21:07;97751.16;;;9.46;62.69
49315;BME280;36672;50.710;12.498;2022-12-29T08:23:32;97751.94;;;9.54;63.25
49315;BME280;36672;50.710;12.498;2022-12-29T08:26:03;97749.84;;;9.62;62.65
49315;BME280;36672;50.710;12.498;2022-12-29T08:28:29;97756.91;;;9.63;62.19
49315;BME280;36672;50.710;12.498;2022-12-29T08:30:59;97765.84;;;9.64;62.34
49315;BME280;36672;50.710;12.498;2022-12-29T08:33:25;97750.44;;;9.71;62.11
49315;BME280;36672;50.710;12.498;2022-12-29T08:35:51;97755.22;;;9.76;62.27
49315;BME280;36672;50.710;12.498;2022-12-29T08:38:16;97749.63;;;9.71;62.25
49315;BME280;36672;50.710;12.498;2022-12-29T08:40:43;97734.47;;;9.70;61.47
49315;BME280;36672;50.710;12.498;2022-12-29T08:43:08;97750.22;;;9.79;61.09
49315;BME280;36672;50.710;12.498;2022-12-29T08:45:34;97748.78;;;9.77;61.27
49315;BME280;36672;50.710;12.498;2022-12-29T08:47:59;97747.06;;;9.89;61.12
49315;BME280;36672;50.710;12.498;2022-12-29T08:50:24;97761.72;;;10.07;60.34
49315;BME280;36672;50.710;12.498;2022-12-29T08:52:50;97748.72;;;10.36;60.18
49315;BME280;36672;50.710;12.498;2022-12-29T08:55:15;97749.78;;;10.60;59.65
49315;BME280;36672;50.710;12.498;2022-12-29T08:57:41;97745.41;;;10.66;59.13
49315;BME280;36672;50.710;12.498;2022-12-29T09:00:06;97754.16;;;10.61;58.79
49315;BME280;36672;50.710;12.498;2022-12-29T09:02:32;97733.91;;;10.70;59.02
49315;BME280;36672;50.710;12.498;2022-12-29T09:04:57;97721.97;;;10.59;58.19
49315;BME280;36672;50.710;12.498;2022-12-29T09:07:24;97759.13;;;10.64;58.18
49315;BME280;36672;50.710;12.498;2022-12-29T09:09:49;97732.50;;;10.36;58.57
49315;BME280;36672;50.710;12.498;2022-12-29T09:12:16;97752.25;;;10.36;58.29
49315;BME280;36672;50.710;12.498;2022-12-29T09:14:42;97728.81;;;10.23;58.33
49315;BME280;36672;50.710;12.498;2022-12-29T09:17:09;97734.66;;;10.20;58.32
49315;BME280;36672;50.710;12.498;2022-12-29T09:19:54;97760.34;;;10.29;58.45
49315;BME280;36672;50.710;12.498;2022-12-29T09:22:19;97765.56;;;10.31;58.38
49315;BME280;36672;50.710;12.498;2022-12-29T09:24:45;97741.44;;;10.29;58.48
49315;BME280;36672;50.710;12.498;2022-12-29T09:27:10;97755.72;;;10.43;57.83
49315;BME280;36672;50.710;12.498;2022-12-29T09:29:35;97774.22;;;10.40;58.14
49315;BME280;36672;50.710;12.498;2022-12-29T09:32:01;97755.72;;;10.43;58.22
49315;BME280;36672;50.710;12.498;2022-12-29T09:34:26;97737.66;;;10.44;58.31
49315;BME280;36672;50.710;12.498;2022-12-29T09:36:51;97726.00;;;10.50;58.39
49315;BME280;36672;50.710;12.498;2022-12-29T09:39:17;97732.16;;;10.57;57.98
49315;BME280;36672;50.710;12.498;2022-12-29T09:42:12;97735.13;;;10.49;58.81
49315;BME280;36672;50.710;12.498;2022-12-29T09:47:20;97718.31;;;10.47;58.95
49315;BME280;36672;50.710;12.498;2022-12-29T09:50:02;97704.00;;;10.47;58.82
49315;BME280;36672;50.710;12.498;2022-12-29T09:52:32;97696.28;;;10.50;59.28
49315;BME280;36672;50.710;12.498;2022-12-29T09:55:14;97705.81;;;10.53;59.21
49315;BME280;36672;50.710;12.498;2022-12-29T09:57:48;97727.84;;;10.75;59.48
49315;BME280;36672;50.710;12.498;2022-12-29T10:02:43;97713.84;;;10.85;59.74
49315;BME280;36672;50.710;12.498;2022-12-29T10:07:42;97707.00;;;11.07;59.30
49315;BME280;36672;50.710;12.498;2022-12-29T10:10:38;97699.13;;;11.06;59.19
49315;BME280;36672;50.710;12.498;2022-12-29T10:13:36;97714.72;;;11.04;58.90
49315;BME280;36672;50.710;12.498;2022-12-29T10:16:58;97720.06;;;11.10;58.52
49315;BME280;36672;50.710;12.498;2022-12-29T10:20:28;97704.88;;;11.09;58.86
49315;BME280;36672;50.710;12.498;2022-12-29T10:22:45;97719.19;;;11.35;58.59
49315;BME280;36672;50.710;12.498;2022-12-29T10:25:19;97704.31;;;11.63;58.32
49315;BME280;36672;50.710;12.498;2022-12-29T10:27:49;97719.34;;;11.59;57.83
49315;BME280;36672;50.710;12.498;2022-12-29T10:30:16;97694.53;;;11.62;58.10
49315;BME280;36672;50.710;12.498;2022-12-29T10:35:18;97710.16;;;11.79;57.99
49315;BME280;36672;50.710;12.498;2022-12-29T10:38:03;97697.88;;;11.95;57.50
49315;BME280;36672;50.710;12.498;2022-12-29T10:40:39;97713.44;;;12.84;56.42
49315;BME280;36672;50.710;12.498;2022-12-29T10:43:41;97696.19;;;13.61;53.18
49315;BME280;36672;50.710;12.498;2022-12-29T10:46:07;97726.44;;;13.41;53.39
49315;BME280;36672;50.710;12.498;2022-12-29T10:48:35;97683.50;;;12.91;55.17
49315;BME280;36672;50.710;12.498;2022-12-29T10:51:02;97686.41;;;12.53;55.61
49315;BME280;36672;50.710;12.498;2022-12-29T10:53:38;97681.28;;;12.21;55.94
49315;BME280;36672;50.710;12.498;2022-12-29T10:56:14;97697.97;;;12.18;56.35
49315;BME280;36672;50.710;12.498;2022-12-29T10:58:42;97705.16;;;12.13;56.38
49315;BME280;36672;50.710;12.498;2022-12-29T11:01:12;97675.19;;;11.96;56.31
49315;BME280;36672;50.710;12.498;2022-12-29T11:03:43;97688.50;;;11.97;56.74
49315;BME280;36672;50.710;12.498;2022-12-29T11:06:24;97697.88;;;11.95;56.50
49315;BME280;36672;50.710;12.498;2022-12-29T11:08:55;97701.41;;;11.95;56.11
49315;BME280;36672;50.710;12.498;2022-12-29T11:11:28;97713.16;;;11.89;56.05
49315;BME280;36672;50.710;12.498;2022-12-29T11:14:02;97684.88;;;11.85;56.16
49315;BME280;36672;50.710;12.498;2022-12-29T11:16:32;97701.09;;;11.73;56.51
49315;BME280;36672;50.710;12.498;2022-12-29T11:19:00;97698.19;;;11.68;56.64
49315;BME280;36672;50.710;12.498;2022-12-29T11:21:35;97696.44;;;11.62;56.36
49315;BME280;36672;50.710;12.498;2022-12-29T11:24:17;97696.63;;;11.60;56.96
49315;BME280;36672;50.710;12.498;2022-12-29T11:26:44;97690.41;;;11.59;56.86
49315;BME280;36672;50.710;12.498;2022-12-29T11:32:23;97686.72;;;11.54;56.36
49315;BME280;36672;50.710;12.498;2022-12-29T11:34:49;97695.28;;;11.69;56.47
49315;BME280;36672;50.710;12.498;2022-12-29T11:37:19;97688.22;;;11.87;56.07
49315;BME280;36672;50.710;12.498;2022-12-29T11:40:05;97688.03;;;12.31;55.10
49315;BME280;36672;50.710;12.498;2022-12-29T11:42:41;97677.38;;;12.60;54.03
49315;BME280;36672;50.710;12.498;2022-12-29T11:45:22;97683.97;;;12.64;54.04
49315;BME280;36672;50.710;12.498;2022-12-29T11:47:52;97689.50;;;12.57;54.47
49315;BME280;36672;50.710;12.498;2022-12-29T11:50:30;97684.88;;;12.46;54.16
49315;BME280;36672;50.710;12.498;2022-12-29T11:53:21;97665.41;;;12.25;54.95
49315;BME280;36672;50.710;12.498;2022-12-29T11:55:57;97666.81;;;12.28;54.83
49315;BME280;36672;50.710;12.498;2022-12-29T11:58:32;97660.56;;;12.27;54.75
49315;BME280;36672;50.710;12.498;2022-12-29T12:01:02;97666.41;;;12.43;54.66
49315;BME280;36672;50.710;12.498;2022-12-29T12:03:31;97660.13;;;12.54;54.34
49315;BME280;36672;50.710;12.498;2022-12-29T12:06:03;97667.56;;;12.47;54.56
49315;BME280;36672;50.710;12.498;2022-12-29T12:09:10;97670.38;;;12.40;54.72
49315;BME280;36672;50.710;12.498;2022-12-29T12:11:40;97676.16;;;12.44;54.62
49315;BME280;36672;50.710;12.498;2022-12-29T12:16:40;97655.09;;;12.57;54.64
49315;BME280;36672;50.710;12.498;2022-12-29T12:22:04;97671.13;;;12.83;53.84
49315;BME280;36672;50.710;12.498;2022-12-29T12:24:35;97656.28;;;13.09;53.32
49315;BME280;36672;50.710;12.498;2022-12-29T12:27:19;97666.75;;;13.29;52.41
49315;BME280;36672;50.710;12.498;2022-12-29T12:30:15;97649.75;;;13.34;52.67
49315;BME280;36672;50.710;12.498;2022-12-29T12:32:45;97647.78;;;13.17;53.15
49315;BME280;36672;50.710;12.498;2022-12-29T12:38:20;97646.97;;;12.93;53.28
49315;BME280;36672;50.710;12.498;2022-12-29T12:43:32;97643.69;;;12.91;53.35
49315;BME280;36672;50.710;12.498;2022-12-29T12:51:23;97639.91;;;12.80;53.75
49315;BME280;36672;50.710;12.498;2022-12-29T12:53:59;97646.00;;;12.99;53.69
49315;BME280;36672;50.710;12.498;2022-12-29T12:56:43;97642.72;;;12.85;53.71
49315;BME280;36672;50.710;12.498;2022-12-29T12:59:30;97646.75;;;12.71;53.86
49315;BME280;36672;50.710;12.498;2022-12-29T13:13:19;97643.66;;;12.55;54.23
49315;BME280;36672;50.710;12.498;2022-12-29T13:16:12;97635.88;;;12.47;54.57
49315;BME280;36672;50.710;12.498;2022-12-29T13:18:55;97650.38;;;12.53;54.54
49315;BME280;36672;50.710;12.498;2022-12-29T13:21:37;97659.69;;;12.45;54.79
49315;BME280;36672;50.710;12.498;2022-12-29T13:24:26;97662.59;;;12.44;55.17
49315;BME280;36672;50.710;12.498;2022-12-29T13:32:56;97664.19;;;12.21;55.65
49315;BME280;36672;50.710;12.498;2022-12-29T13:38:03;97681.59;;;12.13;55.66
49315;BME280;36672;50.710;12.498;2022-12-29T13:40:33;97682.88;;;12.11;55.86
49315;BME280;36672;50.710;12.498;2022-12-29T13:43:01;97674.19;;;12.09;56.03
49315;BME280;36672;50.710;12.498;2022-12-29T13:45:30;97674.75;;;11.99;56.37
49315;BME280;36672;50.710;12.498;2022-12-29T13:48:10;97676.41;;;11.81;56.29
49315;BME280;36672;50.710;12.498;2022-12-29T13:50:39;97670.50;;;11.84;56.62
49315;BME280;36672;50.710;12.498;2022-12-29T13:55:56;97708.34;;;11.72;58.25
49315;BME280;36672;50.710;12.498;2022-12-29T14:01:27;97717.09;;;11.56;60.35
49315;BME280;36672;50.710;12.498;2022-12-29T14:03:58;97737.22;;;11.41;61.77
49315;BME280;36672;50.710;12.498;2022-12-29T14:06:27;97738.03;;;11.23;61.75
49315;BME280;36672;50.710;12.498;2022-12-29T14:08:56;97723.28;;;11.01;62.06
49315;BME280;36672;50.710;12.498;2022-12-29T14:11:28;97705.25;;;10.95;62.48
49315;BME280;36672;50.710;12.498;2022-12-29T14:13:55;97708.13;;;11.00;61.83
49315;BME280;36672;50.710;12.498;2022-12-29T14:16:30;97698.78;;;10.96;62.48
49315;BME280;36672;50.710;12.498;2022-12-29T14:19:04;97704.19;;;10.96;62.48
49315;BME280;36672;50.710;12.498;2022-12-29T14:21:31;97695.66;;;10.99;61.71
49315;BME280;36672;50.710;12.498;2022-12-29T14:26:58;97700.72;;;10.88;61.95
49315;BME280;36672;50.710;12.498;2022-12-29T14:31:48;97731.94;;;10.84;62.28
49315;BME280;36672;50.710;12.498;2022-12-29T14:36:40;97745.13;;;10.74;62.32
49315;BME280;36672;50.710;12.498;2022-12-29T14:39:38;97736.09;;;10.62;62.04
49315;BME280;36672;50.710;12.498;2022-12-29T14:47:19;97736.06;;;10.36;61.41
49315;BME280;36672;50.710;12.498;2022-12-29T14:49:45;97749.44;;;10.50;61.77
49315;BME280;36672;50.710;12.498;2022-12-29T14:52:23;97753.25;;;10.42;62.14
49315;BME280;36672;50.710;12.498;2022-12-29T14:54:50;97758.03;;;10.40;61.54
49315;BME280;36672;50.710;12.498;2022-12-29T14:57:38;97748.28;;;10.32;61.60